Time;durP1;ratioP1;P1;durP2;ratioP2;P2;SDS_P1;SDS_P2;PMS_P1;PMS_P2;Temp;Humidity;BMP_temperature;BMP_pressure;BME280_temperature;BME280_humidity;BME280_pressure;Samples;Min_cycle;Max_cycle;Signal;HPM_P1;HPM_P2
2023/05/15 00:00:36;;;;;;;7.00;6.30;;;12.00;1.00;;;;;;6121840;23;20184;-89
2023/05/15 00:03:02;;;;;;;9.63;7.00;;;12.00;1.00;;;;;;6122711;23;20198;-89
2023/05/15 00:05:28;;;;;;;6.55;5.95;;;12.00;1.00;;;;;;6122274;23;20155;-89
2023/05/15 00:07:54;;;;;;;6.90;6.30;;;12.00;1.00;;;;;;6122223;23;20159;-89
2023/05/15 00:10:19;;;;;;;7.53;6.32;;;11.90;1.00;;;;;;6122674;23;20624;-89
2023/05/15 00:12:45;;;;;;;7.30;6.63;;;11.90;1.00;;;;;;6123939;23;20626;-89
2023/05/15 00:15:11;;;;;;;6.45;5.95;;;13.20;1.00;;;;;;6124156;23;20187;-89
2023/05/15 00:17:36;;;;;;;7.30;6.70;;;11.70;1.00;;;;;;6124212;23;20168;-90
2023/05/15 00:20:03;;;;;;;7.30;6.70;;;13.10;1.00;;;;;;6124236;23;20195;-90
2023/05/15 00:22:29;;;;;;;7.00;6.40;;;11.60;1.00;;;;;;6124390;23;20211;-90
2023/05/15 00:24:55;;;;;;;9.37;6.87;;;11.60;1.00;;;;;;6123669;23;20167;-91
2023/05/15 00:27:21;;;;;;;7.23;6.27;;;11.40;1.00;;;;;;6124202;23;20195;-90
2023/05/15 00:29:46;;;;;;;7.57;6.88;;;11.70;1.00;;;;;;6124366;23;20215;-89
2023/05/15 00:32:12;;;;;;;8.05;7.28;;;11.40;1.00;;;;;;6124275;23;20580;-89
2023/05/15 00:34:38;;;;;;;7.73;7.03;;;11.20;1.00;;;;;;6123566;23;20172;-90
2023/05/15 00:37:04;;;;;;;7.53;6.87;;;11.30;1.00;;;;;;6123885;23;20612;-89
2023/05/15 00:39:29;;;;;;;7.50;6.80;;;11.30;1.00;;;;;;6123908;23;20211;-90
2023/05/15 00:41:57;;;;;;;6.78;6.18;;;11.30;1.00;;;;;;6123950;23;20242;-89
2023/05/15 00:44:24;;;;;;;7.00;6.40;;;11.40;1.00;;;;;;6124275;23;20160;-90
2023/05/15 00:46:52;;;;;;;7.23;6.63;;;11.30;1.00;;;;;;6123802;23;20761;-90
2023/05/15 00:49:19;;;;;;;7.25;6.68;;;11.70;1.00;;;;;;6123723;23;20274;-89
2023/05/15 00:51:45;;;;;;;7.57;6.97;;;11.70;1.00;;;;;;6124109;23;20164;-90
2023/05/15 00:54:12;;;;;;;7.47;6.78;;;11.30;1.00;;;;;;6099925;23;20184;-89
2023/05/15 00:56:38;;;;;;;7.63;6.93;;;11.20;1.00;;;;;;6123025;23;20172;-88
2023/05/15 00:59:06;;;;;;;7.68;6.97;;;10.90;1.00;;;;;;6123662;23;20443;-89
2023/05/15 01:01:33;;;;;;;7.50;6.73;;;11.70;1.00;;;;;;6124305;23;20734;-91
2023/05/15 01:04:03;;;;;;;7.80;7.00;;;10.70;1.00;;;;;;6123960;23;20221;-90
2023/05/15 01:06:32;;;;;;;8.00;7.30;;;10.80;1.00;;;;;;6123486;23;20604;-90
2023/05/15 01:09:03;;;;;;;6.93;6.40;;;11.10;1.00;;;;;;6123679;23;20308;-89
2023/05/15 01:11:34;;;;;;;7.47;6.87;;;11.20;1.00;;;;;;6123848;23;20164;-89
2023/05/15 01:14:04;;;;;;;8.00;7.30;;;10.80;1.00;;;;;;6124116;23;20163;-89
2023/05/15 01:16:34;;;;;;;7.10;6.60;;;10.90;1.00;;;;;;6123822;23;20164;-88
2023/05/15 01:19:02;;;;;;;7.77;6.63;;;10.70;1.00;;;;;;6123618;23;20191;-90
2023/05/15 01:21:34;;;;;;;7.53;6.83;;;10.80;1.00;;;;;;6123441;23;20255;-90
2023/05/15 01:24:37;;;;;;;7.63;6.93;;;10.80;1.00;;;;;;6123310;23;20596;-90
2023/05/15 01:27:15;;;;;;;8.23;7.47;;;10.80;1.00;;;;;;6123866;23;20600;-89
2023/05/15 01:30:03;;;;;;;7.83;7.13;;;10.80;1.00;;;;;;6123511;23;20258;-91
2023/05/15 01:32:42;;;;;;;7.60;6.90;;;10.80;1.00;;;;;;6124008;23;20160;-91
2023/05/15 01:35:09;;;;;;;8.07;7.27;;;10.20;1.00;;;;;;6123688;23;20155;-90
2023/05/15 01:37:40;;;;;;;8.03;7.20;;;10.50;1.00;;;;;;6123566;23;20187;-91
2023/05/15 01:40:08;;;;;;;7.27;6.67;;;10.40;1.00;;;;;;6123495;23;20274;-91
2023/05/15 01:42:35;;;;;;;7.10;6.50;;;10.40;1.00;;;;;;6123585;23;20159;-90
2023/05/15 01:45:07;;;;;;;7.37;6.67;;;10.30;1.00;;;;;;6123926;23;20163;-90
2023/05/15 01:47:47;;;;;;;7.43;6.70;;;10.30;1.00;;;;;;6122950;23;20190;-89
2023/05/15 01:50:16;;;;;;;7.77;7.07;;;10.40;1.00;;;;;;6124317;23;20203;-89
2023/05/15 01:52:56;;;;;;;7.23;6.37;;;10.40;1.00;;;;;;6123361;23;20168;-90
2023/05/15 01:55:23;;;;;;;8.13;6.80;;;10.40;1.00;;;;;;6123125;23;20163;-89
2023/05/15 01:57:50;;;;;;;7.63;7.03;;;10.40;1.00;;;;;;6123282;23;20235;-91
2023/05/15 02:00:18;;;;;;;7.23;6.63;;;10.30;1.00;;;;;;6123644;23;20233;-91
2023/05/15 02:02:46;;;;;;;6.93;6.43;;;10.80;1.00;;;;;;6098908;23;20167;-89
2023/05/15 02:05:13;;;;;;;6.70;6.20;;;10.70;1.00;;;;;;6122830;23;20295;-90
2023/05/15 02:07:42;;;;;;;7.23;6.53;;;10.90;1.00;;;;;;6123243;23;20162;-89
2023/05/15 02:10:09;;;;;;;7.80;7.10;;;10.40;1.00;;;;;;6123136;23;20615;-92
2023/05/15 02:12:36;;;;;;;7.90;7.20;;;10.40;1.00;;;;;;6123180;23;20186;-91
2023/05/15 02:15:03;;;;;;;7.93;7.23;;;10.60;1.00;;;;;;6122359;23;20210;-89
2023/05/15 02:17:28;;;;;;;8.47;7.57;;;10.10;1.00;;;;;;6122868;23;20164;-89
2023/05/15 02:19:55;;;;;;;7.60;7.00;;;10.00;1.00;;;;;;6121814;23;20254;-88
2023/05/15 02:22:20;;;;;;;11.07;8.37;;;10.00;1.00;;;;;;6123291;23;20209;-89
2023/05/15 02:24:46;;;;;;;8.40;7.60;;;10.80;1.00;;;;;;6122494;23;20242;-89
2023/05/15 02:27:27;;;;;;;8.17;7.43;;;10.30;1.00;;;;;;6122945;23;20245;-89
2023/05/15 02:30:07;;;;;;;8.37;7.67;;;10.00;1.00;;;;;;6122674;23;20191;-88
2023/05/15 02:32:54;;;;;;;8.03;7.23;;;10.20;1.00;;;;;;6122740;23;20175;-88
2023/05/15 02:35:32;;;;;;;10.00;7.43;;;10.30;1.00;;;;;;6122325;23;20163;-88
2023/05/15 02:38:02;;;;;;;8.80;8.10;;;10.30;1.00;;;;;;6122642;23;20175;-89
2023/05/15 02:40:29;;;;;;;8.37;7.60;;;10.20;1.00;;;;;;6098837;23;20363;-90
2023/05/15 02:42:56;;;;;;;8.33;7.30;;;10.20;1.00;;;;;;6122864;23;20564;-89
2023/05/15 02:45:23;;;;;;;8.47;7.73;;;10.70;1.00;;;;;;6122314;23;20159;-88
2023/05/15 02:47:50;;;;;;;8.27;7.47;;;10.10;1.00;;;;;;6122313;23;20156;-90
2023/05/15 02:50:17;;;;;;;8.53;7.70;;;10.10;1.00;;;;;;6122483;23;20250;-89
2023/05/15 02:52:42;;;;;;;8.17;7.47;;;10.80;1.00;;;;;;6122162;23;20174;-88
2023/05/15 02:55:09;;;;;;;8.03;7.33;;;9.90;1.00;;;;;;6122437;23;20164;-89
2023/05/15 02:57:40;;;;;;;8.83;8.03;;;9.90;1.00;;;;;;6122199;23;20194;-89
2023/05/15 03:00:12;;;;;;;9.00;8.20;;;9.90;1.00;;;;;;6122368;23;20193;-89
2023/05/15 03:02:38;;;;;;;9.43;8.53;;;9.80;1.00;;;;;;6099832;23;20164;-89
2023/05/15 03:05:04;;;;;;;9.00;8.20;;;9.80;1.00;;;;;;6122330;23;20171;-89
2023/05/15 03:07:30;;;;;;;8.30;7.60;;;9.70;1.00;;;;;;6122720;23;20243;-88
2023/05/15 03:09:56;;;;;;;9.50;8.50;;;9.70;1.00;;;;;;6122414;23;20277;-89
2023/05/15 03:12:21;;;;;;;9.60;8.70;;;11.10;7.20;;;;;;6122406;23;20160;-89
2023/05/15 03:14:47;;;;;;;9.83;8.93;;;9.60;21.10;;;;;;6122087;23;20168;-89
2023/05/15 03:17:13;;;;;;;10.33;9.33;;;9.90;28.80;;;;;;6122682;23;20171;-89
2023/05/15 03:19:38;;;;;;;9.97;9.07;;;9.50;47.10;;;;;;6122506;23;20254;-89
2023/05/15 03:22:04;;;;;;;9.60;8.80;;;10.80;67.50;;;;;;6122467;23;20163;-91
2023/05/15 03:24:30;;;;;;;11.33;9.03;;;9.60;84.20;;;;;;6122585;23;20194;-90
2023/05/15 03:26:56;;;;;;;10.83;9.83;;;9.60;88.10;;;;;;6122177;23;20194;-89
2023/05/15 03:29:21;;;;;;;11.00;10.10;;;9.90;99.80;;;;;;6122639;23;20175;-89
2023/05/15 03:31:47;;;;;;;10.20;9.30;;;9.50;99.90;;;;;;6122424;23;20647;-90
2023/05/15 03:34:13;;;;;;;11.47;10.37;;;9.70;98.20;;;;;;6122673;23;20168;-89
2023/05/15 03:36:38;;;;;;;11.00;10.00;;;9.40;94.90;;;;;;6121817;23;20494;-89
2023/05/15 03:39:04;;;;;;;10.83;9.77;;;10.70;99.60;;;;;;6122274;23;20191;-90
2023/05/15 03:41:30;;;;;;;11.33;10.23;;;10.10;86.20;;;;;;6122156;23;20195;-90
2023/05/15 03:43:55;;;;;;;10.93;9.93;;;10.90;98.10;;;;;;6122712;23;20170;-90
2023/05/15 03:46:21;;;;;;;10.33;9.53;;;9.40;99.90;;;;;;6123402;23;20160;-88
2023/05/15 03:48:47;;;;;;;9.13;8.33;;;9.50;80.50;;;;;;6123768;23;20185;-89
2023/05/15 03:51:12;;;;;;;9.80;9.00;;;9.60;84.50;;;;;;6124244;23;20174;-89
2023/05/15 03:53:38;;;;;;;11.00;10.00;;;9.60;34.20;;;;;;6124321;23;21032;-89
2023/05/15 03:56:04;;;;;;;10.33;9.33;;;10.90;60.20;;;;;;6124203;23;20507;-89
2023/05/15 03:58:33;;;;;;;10.97;9.47;;;9.60;54.80;;;;;;6124892;23;20901;-90
2023/05/15 04:00:58;;;;;;;10.80;9.80;;;9.90;51.00;;;;;;6124033;23;20190;-88
2023/05/15 04:03:25;;;;;;;10.17;9.27;;;9.60;56.50;;;;;;6124266;23;20164;-90
2023/05/15 04:05:52;;;;;;;10.10;9.30;;;10.00;10.00;;;;;;6124694;23;20263;-89
2023/05/15 04:08:17;;;;;;;10.00;9.20;;;9.90;8.80;;;;;;6124027;23;20992;-89
2023/05/15 04:10:43;;;;;;;9.60;8.70;;;10.20;1.00;;;;;;6123919;23;20159;-89
2023/05/15 04:13:09;;;;;;;10.40;9.50;;;10.10;1.00;;;;;;6124133;23;20550;-88
2023/05/15 04:15:40;;;;;;;11.23;10.13;;;10.10;1.00;;;;;;6148614;23;20648;-88
2023/05/15 04:18:06;;;;;;;10.40;9.10;;;10.10;2.20;;;;;;6149950;23;20163;-89
2023/05/15 04:20:32;;;;;;;9.10;8.30;;;10.40;1.00;;;;;;6124199;23;20194;-89
2023/05/15 04:22:58;;;;;;;9.53;8.63;;;10.30;1.00;;;;;;6124311;23;20163;-90
2023/05/15 04:25:24;;;;;;;9.60;8.67;;;10.20;1.00;;;;;;6123824;23;20239;-91
2023/05/15 04:27:50;;;;;;;8.93;8.23;;;10.30;1.00;;;;;;6124013;23;20283;-89
2023/05/15 04:30:16;;;;;;;10.47;9.47;;;10.60;1.00;;;;;;6124455;23;20633;-89
2023/05/15 04:32:42;;;;;;;10.03;9.20;;;10.40;1.00;;;;;;6123923;23;20218;-90
2023/05/15 04:35:09;;;;;;;13.13;11.83;;;11.00;1.00;;;;;;6124005;23;20171;-91
2023/05/15 04:37:42;;;;;;;11.93;10.93;;;10.40;14.40;;;;;;6124242;23;20206;-90
2023/05/15 04:40:09;;;;;;;13.53;11.93;;;10.40;20.30;;;;;;6123979;23;20197;-89
2023/05/15 04:42:37;;;;;;;10.53;9.70;;;10.40;37.80;;;;;;6123525;23;20242;-90
2023/05/15 04:45:04;;;;;;;14.00;12.77;;;10.60;1.00;;;;;;6123386;23;20167;-88
2023/05/15 04:47:30;;;;;;;13.10;12.00;;;10.60;29.30;;;;;;6123189;23;20156;-89
2023/05/15 04:49:55;;;;;;;13.63;12.40;;;10.60;23.80;;;;;;6123506;23;20195;-90
2023/05/15 04:52:21;;;;;;;12.93;11.83;;;10.60;21.70;;;;;;6123914;23;20172;-90
2023/05/15 04:54:48;;;;;;;12.97;11.93;;;10.70;26.70;;;;;;6123410;23;20167;-89
2023/05/15 04:57:14;;;;;;;12.90;11.60;;;10.70;23.60;;;;;;6122432;23;20160;-90
2023/05/15 04:59:39;;;;;;;13.60;12.27;;;10.80;6.20;;;;;;6123437;23;20198;-89
2023/05/15 05:02:05;;;;;;;12.83;11.63;;;10.90;19.30;;;;;;6123431;23;20159;-88
2023/05/15 05:04:31;;;;;;;11.77;10.77;;;10.90;13.40;;;;;;6123367;23;20500;-91
2023/05/15 05:06:56;;;;;;;12.57;11.47;;;11.10;7.50;;;;;;6123124;23;20182;-90
2023/05/15 05:09:22;;;;;;;13.40;12.20;;;11.20;1.00;;;;;;6099208;23;20667;-90
2023/05/15 05:11:48;;;;;;;12.27;11.17;;;11.40;1.00;;;;;;6098783;23;20172;-89
2023/05/15 05:14:14;;;;;;;12.90;11.70;;;11.90;1.00;;;;;;6099592;23;20276;-89
2023/05/15 05:16:43;;;;;;;12.53;11.37;;;11.50;1.00;;;;;;6123183;23;20171;-90
2023/05/15 05:19:09;;;;;;;12.20;11.10;;;11.50;1.00;;;;;;6099257;23;20639;-88
2023/05/15 05:21:34;;;;;;;12.63;11.55;;;12.10;1.00;;;;;;6123518;23;20166;-89
2023/05/15 05:24:00;;;;;;;11.88;10.65;;;11.90;1.00;;;;;;6099065;23;20156;-89
2023/05/15 05:26:26;;;;;;;10.57;9.68;;;13.30;1.00;;;;;;6122988;23;20163;-88
2023/05/15 05:28:52;;;;;;;10.52;9.63;;;15.20;1.00;;;;;;6123095;23;20238;-89
2023/05/15 05:31:19;;;;;;;10.23;9.43;;;14.40;1.00;;;;;;6123559;23;20195;-88
2023/05/15 05:33:44;;;;;;;11.20;10.20;;;14.10;1.00;;;;;;6123245;23;20186;-88
2023/05/15 05:36:10;;;;;;;12.18;9.95;;;14.40;1.00;;;;;;6099409;23;20159;-89
2023/05/15 05:38:36;;;;;;;10.68;9.77;;;14.80;1.00;;;;;;6123718;23;20234;-88
2023/05/15 05:41:02;;;;;;;10.07;9.18;;;15.50;1.00;;;;;;6148140;23;20187;-86
2023/05/15 05:43:28;;;;;;;9.93;9.10;;;14.30;1.00;;;;;;6122555;23;20646;-85
2023/05/15 05:45:54;;;;;;;10.77;9.80;;;14.60;1.00;;;;;;6122017;23;20985;-91
2023/05/15 05:48:19;;;;;;;10.75;9.90;;;13.60;1.00;;;;;;6149585;23;20171;-85
2023/05/15 05:50:45;;;;;;;12.25;10.05;;;13.40;1.00;;;;;;6122473;23;20247;-91
2023/05/15 05:53:10;;;;;;;11.38;9.90;;;13.30;1.00;;;;;;6121374;23;20167;-88
2023/05/15 05:55:36;;;;;;;11.23;10.27;;;13.10;1.00;;;;;;6146643;23;20190;-90
2023/05/15 05:58:02;;;;;;;11.20;10.20;;;13.00;1.00;;;;;;6125038;23;20170;-91
2023/05/15 06:00:28;;;;;;;11.82;10.73;;;13.00;1.00;;;;;;6122740;23;20179;-87
2023/05/15 06:02:56;;;;;;;12.63;11.32;;;12.90;1.00;;;;;;6126814;23;20156;-87
2023/05/15 06:05:24;;;;;;;11.90;10.90;;;13.80;1.00;;;;;;6134014;23;20164;-86
2023/05/15 06:07:51;;;;;;;12.05;10.88;;;13.10;1.00;;;;;;6123841;23;20167;-90
2023/05/15 06:10:17;;;;;;;11.45;10.38;;;13.30;1.00;;;;;;6147181;23;20163;-89
2023/05/15 06:12:42;;;;;;;12.20;11.00;;;12.90;1.00;;;;;;6127578;23;20588;-90
2023/05/15 06:15:08;;;;;;;12.18;11.18;;;13.00;1.00;;;;;;6125423;23;20168;-90
2023/05/15 06:17:34;;;;;;;11.88;10.85;;;13.10;1.00;;;;;;6127522;23;20171;-90
2023/05/15 06:20:00;;;;;;;12.10;11.00;;;13.20;1.00;;;;;;6128377;23;20199;-90
2023/05/15 06:22:25;;;;;;;12.05;10.95;;;13.40;1.00;;;;;;6129172;23;20543;-91
2023/05/15 06:24:51;;;;;;;13.48;12.15;;;13.50;1.00;;;;;;6127285;23;20183;-90
2023/05/15 06:27:16;;;;;;;11.18;10.18;;;13.90;1.00;;;;;;6128385;23;20163;-90
2023/05/15 06:29:42;;;;;;;11.45;10.48;;;13.70;1.00;;;;;;6126946;23;20184;-91
2023/05/15 06:32:08;;;;;;;11.77;10.82;;;14.40;1.00;;;;;;6123180;23;20218;-80
2023/05/15 06:34:34;;;;;;;11.60;10.50;;;13.90;1.00;;;;;;6118098;23;20258;-80
2023/05/15 06:37:00;;;;;;;11.90;10.80;;;13.90;1.00;;;;;;6144618;23;20202;-81
2023/05/15 06:39:26;;;;;;;10.85;9.85;;;14.00;1.00;;;;;;6144975;23;20523;-82
2023/05/15 06:41:56;;;;;;;11.15;10.05;;;14.00;1.00;;;;;;6121240;23;20502;-81
2023/05/15 06:44:22;;;;;;;11.70;10.50;;;14.20;1.00;;;;;;6121331;23;20144;-80
2023/05/15 06:46:48;;;;;;;11.82;10.63;;;14.40;1.00;;;;;;6144789;23;20618;-80
2023/05/15 06:49:13;;;;;;;11.20;10.20;;;14.50;1.00;;;;;;6144591;23;20187;-80
2023/05/15 06:51:39;;;;;;;11.65;10.68;;;14.50;1.00;;;;;;6143681;23;20734;-80
2023/05/15 06:54:05;;;;;;;10.95;9.85;;;14.60;1.00;;;;;;6144096;23;20266;-80
2023/05/15 06:56:30;;;;;;;11.43;10.23;;;14.60;1.00;;;;;;6117907;23;20573;-81
2023/05/15 06:58:56;;;;;;;10.70;9.88;;;14.80;1.00;;;;;;6144632;23;20187;-81
2023/05/15 07:01:21;;;;;;;11.77;10.73;;;15.00;1.00;;;;;;6118209;23;20219;-81
2023/05/15 07:03:47;;;;;;;10.95;9.90;;;15.60;1.00;;;;;;6118240;23;20170;-81
2023/05/15 07:06:12;;;;;;;10.20;9.30;;;15.40;1.00;;;;;;6117905;23;20170;-81
2023/05/15 07:08:38;;;;;;;10.27;8.93;;;16.80;1.00;;;;;;6120415;23;20190;-81
2023/05/15 07:11:04;;;;;;;9.90;9.00;;;16.00;1.00;;;;;;6120992;23;20159;-81
2023/05/15 07:13:29;;;;;;;9.75;8.95;;;16.40;1.00;;;;;;6146740;23;20156;-81
2023/05/15 07:15:55;;;;;;;9.45;8.35;;;16.70;1.00;;;;;;6147235;23;20592;-81
2023/05/15 07:18:20;;;;;;;9.57;8.60;;;16.20;1.00;;;;;;6146905;23;20175;-81
2023/05/15 07:20:46;;;;;;;9.60;8.60;;;17.10;1.00;;;;;;6120050;23;20192;-81
2023/05/15 07:23:11;;;;;;;8.93;8.20;;;16.70;1.00;;;;;;6150403;23;20234;-86
2023/05/15 07:25:37;;;;;;;8.27;7.57;;;16.50;1.00;;;;;;6152492;23;20151;-84
2023/05/15 07:28:03;;;;;;;9.07;8.32;;;16.40;1.00;;;;;;6123947;23;20239;-81
2023/05/15 07:30:29;;;;;;;8.60;7.90;;;16.50;1.00;;;;;;6123269;23;20174;-81
2023/05/15 07:32:55;;;;;;;8.60;7.57;;;16.60;1.00;;;;;;6149039;23;20160;-82
2023/05/15 07:35:20;;;;;;;8.27;7.57;;;16.60;1.00;;;;;;6122258;23;20167;-82
2023/05/15 07:37:46;;;;;;;7.70;7.10;;;16.80;1.00;;;;;;6121563;23;20179;-84
2023/05/15 07:40:12;;;;;;;9.00;8.15;;;17.20;1.00;;;;;;6121508;23;20186;-82
2023/05/15 07:42:38;;;;;;;8.02;7.30;;;16.60;1.00;;;;;;6149384;23;20190;-85
2023/05/15 07:45:05;;;;;;;7.65;6.95;;;18.00;1.00;;;;;;6150706;23;20228;-84
2023/05/15 07:47:31;;;;;;;7.40;6.80;;;17.40;1.00;;;;;;6152314;23;20175;-84
2023/05/15 07:49:56;;;;;;;7.72;7.13;;;17.70;1.00;;;;;;6153048;23;20497;-83
2023/05/15 07:52:22;;;;;;;7.78;7.07;;;18.40;1.00;;;;;;6127037;23;20270;-84
2023/05/15 07:54:48;;;;;;;7.50;6.78;;;17.80;1.00;;;;;;6152694;23;20155;-84
2023/05/15 07:57:14;;;;;;;7.53;6.60;;;19.00;1.00;;;;;;6152305;23;20151;-85
2023/05/15 07:59:39;;;;;;;7.07;6.38;;;17.50;1.00;;;;;;6148534;23;20901;-85
2023/05/15 08:02:05;;;;;;;7.75;7.05;;;18.00;1.00;;;;;;6122435;23;20162;-82
2023/05/15 08:04:31;;;;;;;7.10;6.40;;;18.00;1.00;;;;;;6120644;23;20156;-82
2023/05/15 08:06:56;;;;;;;6.65;6.05;;;18.10;1.00;;;;;;6119616;23;20152;-82
2023/05/15 08:09:22;;;;;;;6.75;6.05;;;18.20;1.00;;;;;;6119544;23;20179;-82
2023/05/15 08:11:47;;;;;;;7.60;6.80;;;18.80;1.00;;;;;;6145845;23;20159;-82
2023/05/15 08:14:13;;;;;;;7.57;6.38;;;19.60;1.00;;;;;;6120539;23;20170;-82
2023/05/15 08:16:39;;;;;;;6.80;6.07;;;19.00;1.00;;;;;;6120369;23;20160;-81
2023/05/15 08:19:06;;;;;;;9.02;6.53;;;19.60;1.00;;;;;;6120946;23;20266;-82
2023/05/15 08:21:31;;;;;;;7.18;6.00;;;19.20;1.00;;;;;;6146884;23;20152;-82
2023/05/15 08:23:58;;;;;;;6.80;6.20;;;19.40;1.00;;;;;;6120319;23;20164;-81
2023/05/15 08:26:24;;;;;;;7.75;6.30;;;19.20;1.00;;;;;;6120762;23;20182;-81
2023/05/15 08:28:50;;;;;;;7.20;6.25;;;19.20;1.00;;;;;;6120470;23;20180;-82
2023/05/15 08:31:15;;;;;;;7.13;6.53;;;19.20;1.00;;;;;;6120846;23;20638;-82
2023/05/15 08:33:41;;;;;;;7.32;6.50;;;18.60;1.00;;;;;;6122526;23;20227;-82
2023/05/15 08:36:07;;;;;;;7.82;6.90;;;19.40;1.00;;;;;;6122057;23;20184;-82
2023/05/15 08:38:32;;;;;;;7.30;6.57;;;19.00;1.00;;;;;;6122256;23;20179;-81
2023/05/15 08:41:03;;;;;;;7.10;6.50;;;19.10;1.00;;;;;;6122300;23;20195;-82
2023/05/15 08:43:30;;;;;;;7.25;6.63;;;19.40;1.00;;;;;;6122721;23;20151;-83
2023/05/15 08:45:56;;;;;;;7.13;6.53;;;19.50;1.00;;;;;;6122590;23;20160;-83
2023/05/15 08:48:26;;;;;;;7.05;6.35;;;19.70;1.00;;;;;;6148538;23;20515;-82
2023/05/15 08:50:54;;;;;;;10.88;7.22;;;19.60;1.00;;;;;;6148557;23;20203;-81
2023/05/15 08:53:20;;;;;;;8.05;7.22;;;20.00;1.00;;;;;;6122555;23;20554;-82
2023/05/15 08:55:45;;;;;;;8.20;7.13;;;19.90;1.00;;;;;;6122648;23;20159;-82
2023/05/15 08:58:12;;;;;;;7.55;6.93;;;20.00;1.00;;;;;;6122171;23;20663;-82
2023/05/15 09:00:37;;;;;;;7.00;6.30;;;19.90;1.00;;;;;;6122269;23;20238;-81
2023/05/15 09:03:03;;;;;;;7.75;6.93;;;20.50;1.00;;;;;;6148218;23;20198;-82
2023/05/15 09:05:29;;;;;;;7.13;6.43;;;19.80;1.00;;;;;;6121925;23;20162;-82
2023/05/15 09:07:57;;;;;;;7.80;6.75;;;19.70;1.00;;;;;;6148005;23;20183;-82
2023/05/15 09:10:23;;;;;;;9.10;6.80;;;22.00;17.00;;;;;;6148211;23;20180;-82
2023/05/15 09:12:51;;;;;;;7.93;6.75;;;20.00;1.00;;;;;;6148178;23;20188;-82
2023/05/15 09:15:20;;;;;;;6.80;6.20;;;19.90;1.00;;;;;;6122223;23;20163;-82
2023/05/15 09:17:47;;;;;;;7.10;6.15;;;19.90;1.00;;;;;;6122140;23;20167;-83
2023/05/15 09:20:30;;;;;;;8.15;6.28;;;20.40;1.00;;;;;;6121766;23;20267;-82
2023/05/15 09:22:57;;;;;;;8.27;7.07;;;19.50;1.00;;;;;;6122169;23;20159;-83
2023/05/15 09:25:51;;;;;;;6.85;6.25;;;19.30;1.00;;;;;;6120753;23;20168;-83
2023/05/15 09:28:31;;;;;;;7.03;6.20;;;19.30;1.00;;;;;;6121319;23;20600;-83
2023/05/15 09:31:02;;;;;;;7.47;6.13;;;19.40;1.00;;;;;;6119401;23;20182;-83
2023/05/15 09:33:33;;;;;;;9.15;5.75;;;19.70;1.00;;;;;;6119712;23;20156;-83
2023/05/15 09:35:59;;;;;;;6.43;5.90;;;19.60;1.00;;;;;;6120691;23;20507;-82
2023/05/15 09:38:25;;;;;;;5.90;5.28;;;19.90;1.00;;;;;;6121062;23;20639;-82
2023/05/15 09:41:03;;;;;;;6.40;5.45;;;19.50;1.00;;;;;;6121359;23;20187;-82
2023/05/15 09:43:33;;;;;;;8.18;6.03;;;19.50;1.00;;;;;;6147582;23;20139;-83
2023/05/15 09:45:58;;;;;;;6.03;5.38;;;19.70;1.00;;;;;;6147350;23;20139;-82
2023/05/15 09:48:24;;;;;;;5.93;5.30;;;20.30;1.00;;;;;;6147979;23;20222;-82
2023/05/15 09:50:50;;;;;;;7.22;5.30;;;20.30;1.00;;;;;;6147997;23;20162;-82
2023/05/15 09:53:16;;;;;;;6.18;5.57;;;20.20;1.00;;;;;;6148049;23;20163;-83
2023/05/15 09:55:42;;;;;;;7.22;5.53;;;20.40;1.00;;;;;;6121448;23;20183;-83
2023/05/15 09:58:09;;;;;;;5.80;5.28;;;21.00;1.00;;;;;;6121429;23;20164;-83
2023/05/15 10:00:36;;;;;;;5.68;5.07;;;20.40;1.00;;;;;;6121454;23;20191;-83
2023/05/15 10:03:03;;;;;;;6.28;4.93;;;20.60;1.00;;;;;;6146891;23;20266;-82
2023/05/15 10:05:29;;;;;;;6.43;4.93;;;20.20;1.00;;;;;;6116478;23;20326;-82
2023/05/15 10:07:55;;;;;;;6.85;5.00;;;20.20;1.00;;;;;;6143340;23;20155;-82
2023/05/15 10:10:22;;;;;;;7.53;5.32;;;20.50;1.00;;;;;;6116328;23;20168;-82
2023/05/15 10:12:51;;;;;;;5.82;5.32;;;20.50;1.00;;;;;;6143146;23;20162;-83
2023/05/15 10:15:18;;;;;;;5.68;5.05;;;20.40;1.00;;;;;;6116659;23;20246;-82
2023/05/15 10:17:49;;;;;;;5.43;4.93;;;20.50;1.00;;;;;;6116067;23;20191;-83
2023/05/15 10:20:20;;;;;;;7.13;4.43;;;20.60;1.00;;;;;;6144476;23;20182;-82
2023/05/15 10:22:51;;;;;;;5.78;4.85;;;20.60;1.00;;;;;;6144736;23;20158;-82
2023/05/15 10:25:44;;;;;;;4.85;4.45;;;20.60;1.00;;;;;;6145106;23;20163;-82
2023/05/15 10:28:11;;;;;;;6.60;4.28;;;20.90;1.00;;;;;;6144444;23;20171;-82
2023/05/15 10:30:37;;;;;;;5.00;4.05;;;21.10;1.00;;;;;;6118432;23;20476;-82
2023/05/15 10:33:04;;;;;;;6.38;4.00;;;20.90;1.00;;;;;;6119078;23;20166;-82
2023/05/15 10:35:30;;;;;;;6.38;4.47;;;21.20;1.00;;;;;;6142557;23;20596;-82
2023/05/15 10:37:56;;;;;;;5.68;4.07;;;21.50;1.00;;;;;;6117409;23;20184;-82
2023/05/15 10:40:23;;;;;;;4.60;4.10;;;21.80;1.00;;;;;;6117219;23;20187;-83
2023/05/15 10:42:49;;;;;;;4.82;4.22;;;21.80;1.00;;;;;;6144905;23;20156;-82
2023/05/15 10:45:15;;;;;;;5.25;4.30;;;21.90;1.00;;;;;;6144662;23;20243;-81
2023/05/15 10:47:42;;;;;;;6.50;4.40;;;21.90;1.00;;;;;;6119743;23;20164;-82
2023/05/15 10:50:10;;;;;;;5.00;3.90;;;22.10;1.00;;;;;;6144524;23;20175;-82
2023/05/15 10:52:37;;;;;;;4.68;4.28;;;22.10;1.00;;;;;;6144439;23;20226;-82
2023/05/15 10:55:12;;;;;;;4.50;4.10;;;22.00;1.00;;;;;;6117746;23;20164;-82
2023/05/15 10:57:38;;;;;;;5.18;4.63;;;21.90;1.00;;;;;;6118132;23;20237;-82
2023/05/15 11:00:30;;;;;;;4.45;3.85;;;21.90;1.00;;;;;;6118085;23;20593;-81
2023/05/15 11:02:57;;;;;;;5.22;4.20;;;21.70;1.00;;;;;;6118528;23;20691;-82
2023/05/15 11:05:23;;;;;;;7.80;4.43;;;22.10;1.00;;;;;;6144354;23;20230;-83
2023/05/15 11:08:14;;;;;;;4.93;4.00;;;21.80;1.00;;;;;;6118011;23;20160;-82
2023/05/15 11:10:40;;;;;;;5.90;4.10;;;21.40;1.00;;;;;;6117886;23;20250;-82
2023/05/15 11:13:05;;;;;;;7.00;4.20;;;20.90;1.00;;;;;;6118663;23;20163;-82
2023/05/15 11:15:57;;;;;;;4.45;3.60;;;20.90;1.00;;;;;;6117979;23;20163;-82
2023/05/15 11:18:24;;;;;;;5.50;4.28;;;20.80;1.00;;;;;;6112532;23;20249;-82
2023/05/15 11:20:50;;;;;;;5.35;3.83;;;20.90;1.00;;;;;;6144030;23;21052;-82
2023/05/15 11:23:20;;;;;;;5.68;4.00;;;21.10;1.00;;;;;;6144916;23;20206;-82
2023/05/15 11:25:55;;;;;;;4.18;3.88;;;21.40;1.00;;;;;;6118112;23;20217;-82
2023/05/15 11:28:22;;;;;;;6.03;3.78;;;21.40;1.00;;;;;;6144147;23;20173;-82
2023/05/15 11:30:51;;;;;;;4.28;3.88;;;21.30;1.00;;;;;;6118129;23;20512;-82
2023/05/15 11:33:19;;;;;;;5.57;3.70;;;21.70;1.00;;;;;;6118385;23;20174;-83
2023/05/15 11:35:56;;;;;;;4.13;3.72;;;21.30;1.00;;;;;;6144106;23;20164;-83
2023/05/15 11:38:25;;;;;;;4.18;3.63;;;20.80;1.00;;;;;;6118303;23;20203;-83
2023/05/15 11:40:55;;;;;;;3.95;3.60;;;20.20;1.00;;;;;;6118318;23;20187;-82
2023/05/15 11:43:24;;;;;;;4.68;3.58;;;19.90;1.00;;;;;;6117942;23;20167;-82
2023/05/15 11:45:56;;;;;;;4.60;4.20;;;19.50;1.00;;;;;;6117549;23;20239;-82
2023/05/15 11:48:24;;;;;;;4.57;3.90;;;19.30;1.00;;;;;;6118258;23;20175;-82
2023/05/15 11:50:52;;;;;;;4.97;4.22;;;20.10;1.00;;;;;;6144296;23;20596;-83
2023/05/15 11:53:18;;;;;;;4.53;4.07;;;19.10;1.00;;;;;;6117988;23;20512;-82
2023/05/15 11:55:44;;;;;;;4.82;3.97;;;19.10;1.00;;;;;;6144369;23;20625;-82
2023/05/15 11:58:15;;;;;;;4.30;3.65;;;19.50;1.00;;;;;;6145076;23;20186;-85
2023/05/15 12:00:42;;;;;;;4.03;3.63;;;19.70;1.00;;;;;;6117629;23;20214;-82
2023/05/15 12:03:20;;;;;;;4.30;3.90;;;19.90;1.00;;;;;;6142769;23;20607;-82
2023/05/15 12:05:45;;;;;;;5.88;4.32;;;19.90;1.00;;;;;;6142950;23;20135;-82
2023/05/15 12:08:12;;;;;;;4.65;4.00;;;19.90;1.00;;;;;;6145933;23;20177;-82
2023/05/15 12:10:44;;;;;;;3.95;3.55;;;19.80;1.00;;;;;;6122786;23;20218;-82
2023/05/15 12:13:10;;;;;;;3.65;3.30;;;19.80;1.00;;;;;;6121962;23;20559;-82
2023/05/15 12:15:46;;;;;;;4.65;2.92;;;19.60;1.00;;;;;;6148706;23;20239;-81
2023/05/15 12:18:12;;;;;;;3.92;3.13;;;19.30;1.00;;;;;;6122196;23;20187;-82
2023/05/15 12:20:43;;;;;;;3.67;3.30;;;19.70;1.00;;;;;;6122481;23;20300;-82
2023/05/15 12:23:09;;;;;;;3.50;3.20;;;18.70;1.00;;;;;;6148632;23;20136;-82
2023/05/15 12:25:35;;;;;;;3.80;3.03;;;18.50;1.00;;;;;;6122519;23;20159;-84
2023/05/15 12:28:03;;;;;;;3.63;3.20;;;18.90;1.00;;;;;;6122039;23;20160;-84
2023/05/15 12:30:32;;;;;;;3.30;3.08;;;18.30;1.00;;;;;;6148295;23;20152;-82
2023/05/15 12:33:01;;;;;;;3.55;2.80;;;18.90;1.00;;;;;;6148205;23;20499;-83
2023/05/15 12:35:27;;;;;;;4.10;3.30;;;18.40;1.00;;;;;;6121781;23;20170;-82
2023/05/15 12:37:52;;;;;;;3.30;2.90;;;18.60;1.00;;;;;;6119590;23;20266;-82
2023/05/15 12:40:20;;;;;;;3.22;2.92;;;18.60;1.00;;;;;;6117968;23;20238;-82
2023/05/15 12:42:55;;;;;;;4.68;2.88;;;19.10;1.00;;;;;;6117609;23;20214;-82
2023/05/15 12:45:22;;;;;;;3.22;2.50;;;19.20;1.00;;;;;;6117216;23;20539;-83
2023/05/15 12:47:49;;;;;;;3.40;2.90;;;19.40;1.00;;;;;;6117268;23;20156;-82
2023/05/15 12:50:19;;;;;;;4.00;2.58;;;19.70;1.00;;;;;;6143727;23;20622;-82
2023/05/15 12:52:56;;;;;;;3.20;2.20;;;20.20;1.00;;;;;;6144761;23;20608;-82
2023/05/15 12:55:30;;;;;;;2.92;2.30;;;19.80;1.00;;;;;;6145791;23;20155;-82